Time;durP1;ratioP1;P1;durP2;ratioP2;P2;SDS_P1;SDS_P2;PMS_P1;PMS_P2;Temp;Humidity;BMP_temperature;BMP_pressure;BME280_temperature;BME280_humidity;BME280_pressure;Samples;Min_cycle;Max_cycle;Signal;HPM_P1;HPM_P2
2022/02/05 00:05:20;;;;;;;2.07;1.97;;;;;;;3.07;100.00;100144.75;5071661;28;20174;-72
2022/02/05 00:07:54;;;;;;;15.13;2.10;;;;;;;3.11;99.19;100153.91;5068073;28;20436;-71
2022/02/05 00:15:48;;;;;;;2.00;1.23;;;;;;;3.13;99.42;100142.84;5069431;28;20167;-71
2022/02/05 00:40:09;;;;;;;1.13;1.13;;;;;;;3.14;99.97;100166.88;5051400;28;20190;-72
2022/02/05 00:42:39;;;;;;;5.00;2.43;;;;;;;3.11;100.00;100183.59;5050952;28;20250;-72
2022/02/05 00:45:08;;;;;;;1.60;1.50;;;;;;;3.10;100.00;100183.88;5051010;28;20178;-72
2022/02/05 00:47:36;;;;;;;1.83;1.73;;;;;;;3.06;100.00;100180.91;5051016;28;20424;-71
2022/02/05 00:50:05;;;;;;;1.60;1.50;;;;;;;3.00;100.00;100176.56;5050966;28;20198;-71
2022/02/05 00:52:31;;;;;;;0.80;0.80;;;;;;;2.91;100.00;100179.00;5051051;28;20175;-72
2022/02/05 00:55:05;;;;;;;2.20;1.47;;;;;;;2.81;100.00;100178.16;5050892;28;20178;-72
2022/02/05 00:57:44;;;;;;;1.03;1.03;;;;;;;2.75;100.00;100185.44;5051162;28;20160;-72
2022/02/05 01:00:11;;;;;;;1.73;1.63;;;;;;;2.69;100.00;100195.38;5050867;28;20635;-72
2022/02/05 01:02:37;;;;;;;0.60;0.60;;;;;;;2.65;100.00;100198.88;5050808;28;20172;-72
2022/02/05 01:05:02;;;;;;;0.97;0.97;;;;;;;2.58;100.00;100185.63;5050749;28;20179;-73
2022/02/05 01:07:28;;;;;;;0.73;0.60;;;;;;;2.54;100.00;100194.53;5050803;28;20189;-71
2022/02/05 01:09:53;;;;;;;2.47;1.60;;;;;;;2.51;100.00;100198.56;5050689;28;20242;-72
2022/02/05 01:12:18;;;;;;;0.77;0.77;;;;;;;2.49;100.00;100199.91;5051072;28;20203;-72
2022/02/05 01:14:50;;;;;;;1.63;1.53;;;;;;;2.45;100.00;100186.13;5050912;28;20623;-72
2022/02/05 01:17:18;;;;;;;9.47;3.17;;;;;;;2.46;100.00;100208.50;5050712;28;20175;-72
2022/02/05 01:22:13;;;;;;;1.67;1.57;;;;;;;2.54;100.00;100205.31;5050717;28;20179;-72
2022/02/05 01:24:40;;;;;;;3.93;2.73;;;;;;;2.58;100.00;100211.78;5050340;28;20875;-72
2022/02/05 01:27:11;;;;;;;3.37;2.23;;;;;;;2.57;100.00;100232.56;5050707;28;20163;-73
2022/02/05 01:30:11;;;;;;;4.63;4.30;;;;;;;2.56;100.00;100211.25;5050555;28;20492;-72
2022/02/05 01:32:40;;;;;;;5.43;1.17;;;;;;;2.57;100.00;100234.44;5050643;28;20248;-71
2022/02/05 01:50:02;;;;;;;2.40;2.20;;;;;;;2.76;100.00;100250.97;5050491;28;20266;-72
2022/02/05 01:54:37;;;;;;;2.33;2.10;;;;;;;2.68;100.00;100266.59;5052930;28;20928;-72
2022/02/05 01:57:12;;;;;;;5.50;1.27;;;;;;;2.66;100.00;100252.56;5070240;28;20412;-72
2022/02/05 02:05:09;;;;;;;2.37;2.17;;;;;;;2.80;100.00;100277.16;5074000;28;20400;-72
2022/02/05 02:24:25;;;;;;;4.37;4.00;;;;;;;3.24;100.00;100265.94;5073766;28;20542;-72
2022/02/05 02:26:35;;;;;;;1.40;0.73;;;;;;;3.27;99.62;100287.81;5072931;28;20661;-71
2022/02/05 02:29:08;;;;;;;2.03;1.77;;;;;;;3.33;98.51;100291.34;5074078;28;20165;-72
2022/02/05 02:31:39;;;;;;;5.93;1.93;;;;;;;3.35;97.97;100289.19;5073618;28;20233;-71
2022/02/05 02:34:09;;;;;;;5.00;2.57;;;;;;;3.37;98.01;100292.44;5073942;28;20190;-72
2022/02/05 02:36:51;;;;;;;1.53;1.43;;;;;;;3.40;98.18;100291.91;5073527;28;20253;-72
2022/02/05 02:39:25;;;;;;;14.00;3.93;;;;;;;3.40;98.14;100293.78;5072591;28;20171;-72
2022/02/05 02:41:57;;;;;;;4.40;2.27;;;;;;;3.40;97.52;100286.50;5073336;28;20431;-72
2022/02/05 02:44:23;;;;;;;10.43;2.87;;;;;;;3.40;97.75;100286.50;5073498;28;20166;-72
2022/02/05 02:46:48;;;;;;;2.13;1.93;;;;;;;3.41;97.42;100295.41;5073215;28;20630;-72
2022/02/05 02:49:20;;;;;;;5.00;2.97;;;;;;;3.43;96.89;100296.75;5073469;28;20181;-72
2022/02/05 02:57:20;;;;;;;0.83;0.83;;;;;;;3.31;96.92;100301.59;5073306;28;20254;-72
2022/02/05 02:59:52;;;;;;;2.30;2.13;;;;;;;3.31;97.32;100296.19;5075523;28;20166;-72
2022/02/05 03:02:20;;;;;;;2.87;1.27;;;;;;;3.31;97.79;100311.56;5074281;28;20167;-72
2022/02/05 03:04:47;;;;;;;1.60;1.50;;;;;;;3.33;98.08;100309.41;5073271;28;20196;-72
2022/02/05 03:07:12;;;;;;;1.70;1.60;;;;;;;3.29;98.58;100301.84;5072879;28;20171;-71
2022/02/05 03:09:38;;;;;;;4.80;2.47;;;;;;;3.24;98.87;100298.34;5072896;28;20181;-71
2022/02/05 03:12:04;;;;;;;2.77;2.57;;;;;;;3.23;99.26;100308.34;5072924;28;20178;-71
2022/02/05 03:14:29;;;;;;;1.10;1.00;;;;;;;3.26;99.22;100298.88;5072612;28;20183;-71
2022/02/05 03:17:02;;;;;;;1.50;1.30;;;;;;;3.29;99.47;100315.34;5072694;28;20175;-71
2022/02/05 03:19:28;;;;;;;1.33;1.10;;;;;;;3.39;98.15;100316.47;5072737;28;20182;-72
2022/02/05 03:21:54;;;;;;;6.17;2.40;;;;;;;3.37;98.04;100319.44;5072763;28;20205;-72
2022/02/05 03:24:19;;;;;;;3.90;2.33;;;;;;;3.39;97.47;100327.28;5072958;28;20656;-72
2022/02/05 03:26:45;;;;;;;1.63;1.43;;;;;;;3.38;97.54;100334.56;5072678;28;20197;-71
2022/02/05 03:29:12;;;;;;;3.13;1.57;;;;;;;3.36;97.11;100346.72;5072737;28;20198;-71
2022/02/05 03:31:38;;;;;;;5.60;3.40;;;;;;;3.38;97.04;100345.34;5072507;28;20209;-71
2022/02/05 03:34:05;;;;;;;1.03;1.03;;;;;;;3.44;95.57;100341.59;5072753;28;20539;-71
2022/02/05 03:36:30;;;;;;;1.50;1.40;;;;;;;3.43;95.11;100345.38;5072225;28;20183;-71
2022/02/05 03:38:56;;;;;;;1.50;1.30;;;;;;;3.39;94.97;100335.38;5072383;28;20726;-71
2022/02/05 03:41:21;;;;;;;1.20;1.17;;;;;;;3.39;94.67;100340.78;5072311;28;20190;-72
2022/02/05 03:43:46;;;;;;;1.30;1.20;;;;;;;3.38;93.72;100348.06;5072265;28;20271;-72
2022/02/05 03:46:12;;;;;;;2.93;1.63;;;;;;;3.36;93.95;100347.53;5072127;28;20178;-72
2022/02/05 03:48:37;;;;;;;1.03;0.97;;;;;;;3.33;93.50;100348.06;5072281;28;20210;-72
2022/02/05 03:51:02;;;;;;;2.80;1.90;;;;;;;3.31;93.25;100347.47;5071979;28;20257;-72
2022/02/05 03:53:28;;;;;;;3.37;1.40;;;;;;;3.29;93.08;100355.84;5071965;28;20186;-71
2022/02/05 03:55:53;;;;;;;8.70;2.17;;;;;;;3.29;92.46;100355.03;5072014;28;20265;-72
2022/02/05 03:58:18;;;;;;;2.63;1.70;;;;;;;3.32;91.85;100359.09;5072028;28;20189;-71
2022/02/05 04:00:44;;;;;;;1.23;1.13;;;;;;;3.29;91.61;100365.84;5071961;28;20539;-72
2022/02/05 04:03:10;;;;;;;0.80;0.80;;;;;;;3.29;91.14;100366.66;5072208;28;20547;-71
2022/02/05 04:05:35;;;;;;;3.13;1.50;;;;;;;3.34;91.10;100370.47;5071760;28;20170;-72
2022/02/05 04:08:03;;;;;;;1.57;1.47;;;;;;;3.38;90.51;100374.25;5071842;28;20200;-71
2022/02/05 04:10:31;;;;;;;3.77;2.30;;;;;;;3.42;90.16;100373.44;5071648;28;20607;-72
2022/02/05 04:15:59;;;;;;;4.37;2.50;;;;;;;3.47;89.81;100378.88;5071465;28;20182;-72
2022/02/05 04:18:25;;;;;;;2.67;1.80;;;;;;;3.48;89.88;100385.91;5071472;28;20166;-71
2022/02/05 04:20:51;;;;;;;3.43;2.20;;;;;;;3.49;90.12;100384.81;5071560;28;20174;-71
2022/02/05 04:23:17;;;;;;;4.83;2.03;;;;;;;3.44;90.33;100384.78;5071774;28;20198;-71
2022/02/05 04:25:43;;;;;;;9.03;2.20;;;;;;;3.41;90.51;100387.22;5070953;28;20729;-72
2022/02/05 04:28:08;;;;;;;4.90;2.50;;;;;;;3.41;90.94;100401.53;5071749;28;20170;-72
2022/02/05 04:30:34;;;;;;;6.63;2.70;;;;;;;3.43;90.52;100396.66;5071603;28;20199;-71
2022/02/05 04:33:00;;;;;;;3.00;2.03;;;;;;;3.47;89.98;100383.44;5071826;28;20626;-71
2022/02/05 04:35:25;;;;;;;2.57;0.87;;;;;;;3.45;90.05;100364.00;5071659;28;20193;-72
2022/02/05 04:37:53;;;;;;;7.63;1.60;;;;;;;3.46;89.40;100384.53;5071848;28;20649;-72
2022/02/05 04:40:28;;;;;;;4.53;0.93;;;;;;;3.41;89.74;100382.63;5071715;28;20181;-71
2022/02/05 04:48:21;;;;;;;2.27;1.90;;;;;;;3.38;89.86;100395.84;5071690;28;20177;-72
2022/02/05 05:01:20;;;;;;;11.83;2.07;;;;;;;3.32;90.97;100400.41;5071745;28;20704;-71
2022/02/05 05:04:07;;;;;;;2.57;1.23;;;;;;;3.40;90.66;100405.31;5071711;28;20197;-72
2022/02/05 05:06:49;;;;;;;2.30;2.00;;;;;;;3.37;90.91;100408.53;5069322;28;20170;-72
2022/02/05 05:09:27;;;;;;;4.53;2.50;;;;;;;3.40;91.00;100399.09;5069983;28;20592;-72
2022/02/05 05:20:05;;;;;;;1.70;1.60;;;;;;;3.26;90.81;100410.38;5071150;28;20703;-71
2022/02/05 05:22:30;;;;;;;9.10;2.23;;;;;;;3.26;90.46;100399.59;5071203;28;20216;-72
2022/02/05 05:24:55;;;;;;;1.63;1.43;;;;;;;3.24;90.50;100406.31;5071049;28;20193;-72
2022/02/05 05:27:21;;;;;;;2.03;1.70;;;;;;;3.22;90.66;100417.41;5071219;28;20179;-71
2022/02/05 05:29:46;;;;;;;4.83;2.13;;;;;;;3.19;90.65;100417.94;5071026;28;20296;-71
2022/02/05 05:32:11;;;;;;;2.30;1.17;;;;;;;3.16;90.79;100426.53;5071429;28;20182;-72
2022/02/05 05:34:37;;;;;;;2.43;1.80;;;;;;;3.10;91.49;100427.59;5070848;28;20178;-72
2022/02/05 05:37:03;;;;;;;1.73;1.63;;;;;;;3.13;91.26;100426.25;5071078;28;20692;-72
2022/02/05 05:39:32;;;;;;;6.20;2.57;;;;;;;3.08;91.67;100429.75;5075163;28;20212;-72
2022/02/05 05:41:57;;;;;;;7.00;2.80;;;;;;;3.07;91.87;100446.19;5070514;28;20182;-71
2022/02/05 05:50:09;;;;;;;4.17;1.80;;;;;;;3.10;91.43;100446.47;5074357;28;20206;-71
2022/02/05 05:52:36;;;;;;;7.90;2.10;;;;;;;3.10;91.64;100445.66;5075023;28;20166;-71
2022/02/05 05:55:01;;;;;;;4.70;2.17;;;;;;;3.15;91.20;100451.09;5074572;28;20174;-72
2022/02/05 05:57:28;;;;;;;7.53;2.73;;;;;;;3.20;90.84;100472.72;5074669;28;20166;-72
2022/02/05 05:59:53;;;;;;;1.23;0.87;;;;;;;3.23;90.58;100473.00;5074639;28;20269;-72
2022/02/05 06:02:19;;;;;;;4.20;3.00;;;;;;;3.29;89.80;100474.66;5074425;28;20253;-72
2022/02/05 06:04:44;;;;;;;9.90;1.63;;;;;;;3.32;89.69;100486.00;5074343;28;20284;-72
2022/02/05 06:07:10;;;;;;;7.17;3.10;;;;;;;3.29;89.89;100487.34;5074806;28;20179;-73
2022/02/05 06:09:39;;;;;;;4.47;1.50;;;;;;;3.25;89.83;100470.84;5074574;28;20197;-71
2022/02/05 06:12:05;;;;;;;7.80;2.33;;;;;;;3.25;90.12;100489.75;5074565;28;20193;-72
2022/02/05 06:14:31;;;;;;;2.53;1.87;;;;;;;3.23;90.47;100497.31;5074236;28;20189;-72
2022/02/05 06:17:02;;;;;;;4.43;2.70;;;;;;;3.22;90.85;100508.38;5074317;28;20179;-71
2022/02/05 06:19:27;;;;;;;2.87;2.67;;;;;;;3.19;91.53;100525.09;5074282;28;20166;-72
2022/02/05 06:21:53;;;;;;;5.83;3.37;;;;;;;3.16;92.06;100514.78;5074336;28;20198;-71
2022/02/05 06:24:18;;;;;;;10.43;1.97;;;;;;;3.15;92.17;100521.25;5074217;28;20555;-72
2022/02/05 06:26:43;;;;;;;1.67;1.43;;;;;;;3.18;92.12;100509.94;5073900;28;20166;-71
2022/02/05 06:29:09;;;;;;;18.60;2.67;;;;;;;3.15;92.25;100526.66;5073927;28;20170;-72
2022/02/05 06:31:34;;;;;;;3.53;2.93;;;;;;;3.15;92.81;100524.78;5074017;28;20656;-72
2022/02/05 06:34:02;;;;;;;1.10;1.10;;;;;;;3.20;92.38;100521.31;5074058;28;20167;-71
2022/02/05 06:36:27;;;;;;;4.97;2.27;;;;;;;3.27;91.28;100538.91;5074052;28;20162;-72
2022/02/05 06:38:52;;;;;;;1.53;0.60;;;;;;;3.27;91.24;100541.59;5073971;28;20179;-71
2022/02/05 06:41:17;;;;;;;0.93;0.93;;;;;;;3.27;90.89;100547.00;5073333;28;20269;-72
2022/02/05 06:43:43;;;;;;;1.03;1.03;;;;;;;3.27;91.15;100556.97;5073539;28;20223;-72
2022/02/05 06:46:08;;;;;;;4.90;2.10;;;;;;;3.26;91.12;100560.75;5072117;28;20227;-72
2022/02/05 06:48:33;;;;;;;2.13;1.10;;;;;;;3.23;91.50;100572.09;5071001;28;20535;-72
2022/02/05 06:50:59;;;;;;;2.27;1.40;;;;;;;3.18;91.39;100572.03;5073290;28;20666;-73
2022/02/05 06:53:24;;;;;;;3.40;2.70;;;;;;;3.15;91.69;100586.84;5073633;28;20185;-72
2022/02/05 06:55:49;;;;;;;1.53;1.43;;;;;;;3.19;90.93;100590.69;5073512;28;20190;-72
2022/02/05 06:58:15;;;;;;;0.83;0.83;;;;;;;3.18;90.63;100582.81;5073434;28;20174;-71
2022/02/05 07:00:41;;;;;;;1.47;1.37;;;;;;;3.14;90.76;100573.63;5073485;28;20699;-71
2022/02/05 07:03:06;;;;;;;1.53;1.23;;;;;;;3.10;90.63;100572.53;5073137;28;20181;-71
2022/02/05 07:05:32;;;;;;;2.93;2.20;;;;;;;3.04;90.78;100582.47;5072816;28;20175;-71
2022/02/05 07:07:57;;;;;;;3.33;2.43;;;;;;;3.07;91.04;100589.25;5072958;28;20232;-72
2022/02/05 07:10:23;;;;;;;0.73;0.73;;;;;;;3.07;90.84;100608.13;5072956;28;20225;-71
2022/02/05 07:15:38;;;;;;;1.10;0.87;;;;;;;3.03;91.29;100604.31;5072920;28;20166;-72
2022/02/05 07:31:20;;;;;;;4.83;1.90;;;;;;;3.04;92.11;100624.81;5070983;28;20232;-70
2022/02/05 07:33:46;;;;;;;1.17;1.17;;;;;;;3.01;94.24;100625.34;5072948;28;20249;-70
2022/02/05 07:36:13;;;;;;;3.17;1.90;;;;;;;2.98;95.25;100627.47;5072790;28;20232;-70
2022/02/05 07:38:40;;;;;;;3.77;2.87;;;;;;;2.95;95.98;100625.31;5072833;28;20171;-70
2022/02/05 07:41:05;;;;;;;0.43;0.43;;;;;;;2.96;95.98;100637.72;5072536;28;20170;-70
2022/02/05 07:43:35;;;;;;;7.10;1.07;;;;;;;2.93;96.06;100640.94;5072433;28;20204;-70
2022/02/05 07:46:05;;;;;;;3.20;1.17;;;;;;;3.05;95.04;100653.47;5072388;28;20170;-71
2022/02/05 07:48:31;;;;;;;5.33;0.70;;;;;;;3.06;94.44;100655.91;5072677;28;20174;-71
2022/02/05 07:50:57;;;;;;;0.90;0.90;;;;;;;3.02;94.94;100648.56;5072536;28;20195;-71
2022/02/05 07:53:22;;;;;;;0.47;0.47;;;;;;;3.03;95.06;100659.09;5072279;28;20692;-70
2022/02/05 07:55:48;;;;;;;1.13;1.03;;;;;;;3.10;95.00;100664.28;5072304;28;20179;-70
2022/02/05 07:58:14;;;;;;;1.53;1.43;;;;;;;3.14;94.84;100660.00;5072392;28;20270;-70
2022/02/05 08:00:39;;;;;;;0.93;0.93;;;;;;;3.16;94.71;100682.16;5071474;28;20228;-70
2022/02/05 08:03:05;;;;;;;2.33;1.47;;;;;;;3.24;94.13;100682.50;5072322;28;20167;-70
2022/02/05 08:05:30;;;;;;;1.50;0.83;;;;;;;3.28;93.75;100674.72;5072116;28;20163;-71
2022/02/05 08:07:56;;;;;;;7.17;1.60;;;;;;;3.29;93.32;100685.25;5071980;28;20525;-70
2022/02/05 08:10:27;;;;;;;5.23;1.90;;;;;;;3.32;93.38;100689.31;5072038;28;20253;-71
2022/02/05 08:12:56;;;;;;;1.33;1.27;;;;;;;3.31;93.49;100695.78;5072076;28;20170;-70
2022/02/05 08:15:23;;;;;;;4.27;1.37;;;;;;;3.31;93.51;100682.28;5069803;28;20638;-70
2022/02/05 08:17:49;;;;;;;0.50;0.50;;;;;;;3.34;93.07;100687.19;5072206;28;20609;-70
2022/02/05 08:20:15;;;;;;;1.97;1.87;;;;;;;3.33;93.32;100688.28;5071941;28;20194;-71
2022/02/05 08:22:40;;;;;;;0.73;0.70;;;;;;;3.35;93.37;100701.50;5071948;28;20174;-71
2022/02/05 08:25:06;;;;;;;18.33;2.27;;;;;;;3.38;93.73;100696.41;5071574;28;20262;-71
2022/02/05 08:27:31;;;;;;;0.43;0.40;;;;;;;3.41;93.73;100703.97;5071824;28;20202;-70
2022/02/05 08:30:00;;;;;;;2.47;2.07;;;;;;;3.45;92.34;100694.28;5071697;28;20203;-71
2022/02/05 08:32:27;;;;;;;7.43;1.30;;;;;;;3.46;92.65;100698.63;5070216;28;20394;-71
2022/02/05 08:34:54;;;;;;;1.57;1.47;;;;;;;3.44;93.21;100725.06;5071533;28;20174;-70
2022/02/05 08:37:19;;;;;;;2.87;1.70;;;;;;;3.44;92.92;100705.34;5071489;28;20179;-70
2022/02/05 08:39:45;;;;;;;3.60;1.87;;;;;;;3.45;92.20;100710.50;5071557;28;20178;-71
2022/02/05 08:42:11;;;;;;;1.47;1.37;;;;;;;3.46;92.54;100701.31;5071198;28;20170;-70
2022/02/05 08:44:36;;;;;;;9.87;1.73;;;;;;;3.48;92.18;100712.69;5071576;28;20179;-70
2022/02/05 08:47:02;;;;;;;1.03;1.03;;;;;;;3.49;92.15;100708.94;5071308;28;20198;-71
2022/02/05 08:49:29;;;;;;;2.83;1.33;;;;;;;3.52;91.76;100708.41;5070571;28;20594;-70
2022/02/05 08:51:57;;;;;;;3.23;1.70;;;;;;;3.54;91.76;100714.34;5071171;28;20216;-71
2022/02/05 08:54:23;;;;;;;0.37;0.37;;;;;;;3.55;91.56;100725.97;5071691;28;20249;-71
2022/02/05 08:56:52;;;;;;;4.53;2.50;;;;;;;3.55;91.88;100710.56;5071161;28;20190;-71
2022/02/05 08:59:18;;;;;;;1.27;1.17;;;;;;;3.57;92.00;100715.72;5071116;28;20220;-71
2022/02/05 09:01:50;;;;;;;3.13;1.00;;;;;;;3.58;91.82;100709.25;5071258;28;20575;-70
2022/02/05 09:04:32;;;;;;;4.00;2.23;;;;;;;3.58;91.04;100720.06;5071391;28;20634;-71
2022/02/05 09:06:59;;;;;;;1.77;1.67;;;;;;;3.67;91.33;100721.22;5071496;28;20163;-73
2022/02/05 09:14:45;;;;;;;5.63;1.70;;;;;;;3.88;89.69;100722.97;5070935;28;20170;-73
2022/02/05 09:17:11;;;;;;;5.93;2.20;;;;;;;3.92;89.44;100739.50;5070975;28;20208;-73
2022/02/05 09:19:36;;;;;;;1.00;0.83;;;;;;;3.98;89.08;100743.84;5070920;28;20304;-73
2022/02/05 09:22:05;;;;;;;2.50;2.30;;;;;;;4.02;89.35;100736.03;5070301;28;20495;-71
2022/02/05 09:24:30;;;;;;;4.00;1.53;;;;;;;4.00;89.27;100732.78;5070696;28;20182;-73
2022/02/05 09:27:00;;;;;;;5.03;2.33;;;;;;;3.97;89.26;100733.31;5070906;28;20201;-74
2022/02/05 09:29:27;;;;;;;19.23;2.57;;;;;;;4.05;89.01;100725.53;5071053;28;20181;-74
2022/02/05 09:31:52;;;;;;;0.93;0.77;;;;;;;4.12;88.68;100747.75;5070520;28;20198;-73
2022/02/05 09:34:18;;;;;;;2.47;2.27;;;;;;;4.14;87.55;100750.19;5070773;28;20177;-72
2022/02/05 09:36:44;;;;;;;7.13;2.23;;;;;;;4.05;87.47;100743.63;5070706;28;20182;-76
2022/02/05 09:39:11;;;;;;;0.77;0.77;;;;;;;4.07;88.30;100749.59;5070688;28;20178;-70
2022/02/05 09:41:38;;;;;;;1.50;0.77;;;;;;;4.07;87.74;100736.09;5070596;28;20669;-70
2022/02/05 09:44:05;;;;;;;2.60;2.37;;;;;;;4.06;87.67;100740.69;5070745;28;20175;-71
2022/02/05 09:46:31;;;;;;;5.17;1.80;;;;;;;4.01;87.50;100743.34;5070613;28;20178;-70
2022/02/05 09:48:57;;;;;;;0.50;0.50;;;;;;;4.07;88.39;100745.00;5070945;28;20185;-70
2022/02/05 09:51:32;;;;;;;1.70;1.37;;;;;;;4.16;87.55;100750.72;5070449;28;20194;-70
2022/02/05 09:53:58;;;;;;;2.33;1.60;;;;;;;4.07;87.61;100741.50;5067897;28;20224;-70
2022/02/05 09:56:25;;;;;;;1.10;0.63;;;;;;;3.96;88.71;100739.78;5070541;28;20599;-70
2022/02/05 09:58:52;;;;;;;2.87;2.07;;;;;;;3.88;89.26;100749.19;5072509;28;20175;-70
2022/02/05 10:01:23;;;;;;;1.63;1.43;;;;;;;3.88;90.04;100735.66;5070482;28;20265;-70
2022/02/05 10:03:51;;;;;;;0.93;0.90;;;;;;;3.93;89.53;100751.13;5062291;28;20191;-70
2022/02/05 10:06:24;;;;;;;0.63;0.63;;;;;;;4.01;89.20;100753.34;5050305;28;20543;-70
2022/02/05 10:09:01;;;;;;;1.83;1.73;;;;;;;4.05;87.94;100776.06;5050982;28;20156;-70
2022/02/05 10:11:31;;;;;;;1.03;1.03;;;;;;;4.09;88.01;100771.78;5050822;28;20229;-71
2022/02/05 10:14:21;;;;;;;3.00;1.33;;;;;;;4.13;88.44;100781.81;5050554;28;20655;-70
2022/02/05 10:17:05;;;;;;;9.83;0.50;;;;;;;4.12;87.41;100788.28;5050044;28;20172;-70
2022/02/05 10:19:50;;;;;;;1.20;1.10;;;;;;;4.15;86.12;100773.44;5050252;28;20155;-70
2022/02/05 10:22:15;;;;;;;3.80;1.77;;;;;;;4.20;85.24;100772.69;5050240;28;20217;-70
2022/02/05 10:24:49;;;;;;;0.93;0.90;;;;;;;4.40;85.81;100781.72;5052757;28;20269;-71
2022/02/05 10:27:28;;;;;;;1.20;0.87;;;;;;;4.56;85.68;100782.59;5053730;28;20186;-71
2022/02/05 10:30:14;;;;;;;3.23;1.13;;;;;;;4.50;84.23;100777.44;5053658;28;20178;-70
2022/02/05 10:32:48;;;;;;;7.70;1.10;;;;;;;4.37;84.18;100767.91;5053761;28;20178;-70
2022/02/05 10:43:10;;;;;;;1.03;1.03;;;;;;;4.54;82.51;100767.72;5053279;28;20214;-70
2022/02/05 10:45:42;;;;;;;1.77;0.60;;;;;;;4.59;82.30;100765.84;5053284;28;20263;-70
2022/02/05 10:48:18;;;;;;;1.80;1.23;;;;;;;4.64;82.53;100774.00;5053471;28;20527;-70
2022/02/05 10:50:44;;;;;;;3.70;2.17;;;;;;;4.59;82.51;100765.03;5053360;28;20289;-70
2022/02/05 10:53:21;;;;;;;4.93;1.70;;;;;;;4.54;82.21;100755.00;5053104;28;20258;-70
2022/02/05 10:58:33;;;;;;;4.27;1.90;;;;;;;4.57;81.42;100753.66;5053430;28;20171;-70
2022/02/05 11:07:04;;;;;;;0.63;0.63;;;;;;;4.89;81.08;100764.34;5053071;28;20181;-70
2022/02/05 11:09:30;;;;;;;0.60;0.60;;;;;;;4.99;80.56;100775.19;5053083;28;20746;-70
2022/02/05 11:20:00;;;;;;;3.13;1.90;;;;;;;5.02;80.75;100755.72;5072457;28;20217;-70
2022/02/05 11:22:34;;;;;;;3.77;1.33;;;;;;;5.07;79.10;100767.38;5072746;28;20186;-70
2022/02/05 11:25:04;;;;;;;1.93;1.70;;;;;;;5.10;79.22;100759.81;5072580;28;20670;-70
2022/02/05 11:27:30;;;;;;;2.20;0.90;;;;;;;5.18;78.18;100759.28;5072801;28;20185;-70
2022/02/05 11:29:55;;;;;;;11.43;2.00;;;;;;;5.26;78.74;100772.28;5072257;28;20182;-70
2022/02/05 11:32:23;;;;;;;1.03;1.03;;;;;;;5.27;78.61;100766.59;5072523;28;20672;-70
2022/02/05 11:35:04;;;;;;;3.10;0.83;;;;;;;5.26;78.54;100756.84;5072035;28;20585;-70
2022/02/05 11:37:29;;;;;;;1.97;1.53;;;;;;;5.22;78.00;100753.06;5072160;28;20182;-70
2022/02/05 11:39:55;;;;;;;10.57;1.73;;;;;;;5.22;78.19;100763.91;5072222;28;20283;-70
2022/02/05 11:42:36;;;;;;;3.63;1.30;;;;;;;5.05;77.80;100760.59;5072245;28;20321;-70
2022/02/05 11:45:26;;;;;;;8.60;1.93;;;;;;;4.94;77.83;100758.94;5072161;28;20167;-70
2022/02/05 11:47:52;;;;;;;2.13;1.37;;;;;;;4.84;77.42;100767.03;5072267;28;20186;-71
2022/02/05 11:50:25;;;;;;;1.13;1.03;;;;;;;4.85;76.60;100753.22;5072137;28;20198;-70
2022/02/05 11:52:51;;;;;;;3.43;1.60;;;;;;;4.83;75.78;100755.38;5072432;28;20220;-70
2022/02/05 11:55:40;;;;;;;1.63;1.20;;;;;;;5.01;77.16;100752.19;5071770;28;20495;-70
2022/02/05 11:58:08;;;;;;;5.10;1.67;;;;;;;5.22;76.34;100765.78;5072106;28;20253;-71
2022/02/05 12:00:53;;;;;;;5.77;1.47;;;;;;;5.24;74.79;100761.72;5071950;28;20228;-70
2022/02/05 12:03:33;;;;;;;5.77;0.63;;;;;;;5.14;74.26;100745.47;5071944;28;20307;-70
2022/02/05 12:06:05;;;;;;;2.93;1.73;;;;;;;5.03;75.18;100755.44;5071653;28;20162;-70
2022/02/05 12:08:36;;;;;;;0.90;0.90;;;;;;;4.95;76.14;100766.81;5071883;28;20169;-71
2022/02/05 12:11:26;;;;;;;6.23;1.73;;;;;;;4.94;77.19;100757.06;5071616;28;20225;-70
2022/02/05 12:14:08;;;;;;;2.90;1.90;;;;;;;4.93;76.04;100760.84;5071787;28;20155;-70
2022/02/05 12:16:36;;;;;;;3.17;0.93;;;;;;;4.94;75.89;100751.66;5071304;28;20171;-71
2022/02/05 12:19:15;;;;;;;8.83;1.77;;;;;;;4.99;75.29;100764.38;5071336;28;20167;-71
2022/02/05 12:21:59;;;;;;;1.60;1.27;;;;;;;4.99;74.91;100751.66;5071512;28;20166;-70
2022/02/05 12:24:39;;;;;;;1.03;1.00;;;;;;;5.03;75.63;100741.09;5071612;28;20174;-70
2022/02/05 12:27:32;;;;;;;5.20;1.87;;;;;;;5.07;74.93;100743.00;5071377;28;20163;-70
2022/02/05 12:30:36;;;;;;;8.80;1.60;;;;;;;5.02;74.21;100731.34;5071342;28;20268;-70
2022/02/05 12:33:02;;;;;;;2.20;0.90;;;;;;;5.03;74.69;100733.78;5071457;28;20178;-70
2022/02/05 12:35:31;;;;;;;1.00;1.00;;;;;;;5.03;74.52;100727.56;5071343;28;20298;-70
2022/02/05 12:37:59;;;;;;;6.70;1.67;;;;;;;5.06;74.57;100740.56;5071605;28;20614;-70
2022/02/05 12:40:25;;;;;;;10.37;1.13;;;;;;;5.07;74.19;100742.22;5071480;28;20261;-70
2022/02/05 12:42:55;;;;;;;1.63;0.90;;;;;;;5.07;74.70;100734.09;5070807;28;20339;-71
2022/02/05 12:45:35;;;;;;;1.27;0.90;;;;;;;5.10;74.86;100730.84;5070753;28;20175;-70
2022/02/05 12:48:05;;;;;;;1.50;0.93;;;;;;;5.10;75.57;100722.72;5070946;28;20245;-70
2022/02/05 12:50:31;;;;;;;1.90;0.77;;;;;;;5.06;75.30;100713.47;5071109;28;20194;-70
2022/02/05 12:52:57;;;;;;;0.60;0.60;;;;;;;5.12;75.30;100720.53;5071047;28;20633;-70
2022/02/05 12:55:27;;;;;;;1.43;1.03;;;;;;;5.18;75.17;100726.75;5070803;28;20633;-73
2022/02/05 12:58:02;;;;;;;1.90;1.53;;;;;;;5.31;75.30;100721.63;5071304;28;20174;-70
2022/02/05 13:00:28;;;;;;;1.00;0.90;;;;;;;5.51;75.42;100723.56;5070971;28;20174;-70
2022/02/05 13:02:53;;;;;;;4.63;1.13;;;;;;;5.72;74.53;100732.50;5071210;28;20532;-70
2022/02/05 13:05:33;;;;;;;0.80;0.80;;;;;;;5.78;73.24;100714.31;5070653;28;20666;-71
2022/02/05 13:07:59;;;;;;;1.60;0.87;;;;;;;5.79;73.74;100729.53;5070688;28;20257;-70
2022/02/05 13:10:25;;;;;;;1.33;1.23;;;;;;;5.61;72.99;100714.59;5070553;28;20328;-70
2022/02/05 13:12:56;;;;;;;6.80;1.57;;;;;;;5.51;73.00;100711.91;5070730;28;20181;-70
2022/02/05 13:15:27;;;;;;;0.30;0.30;;;;;;;5.47;73.76;100713.53;5070433;28;20173;-70
2022/02/05 13:28:45;;;;;;;2.50;1.50;;;;;;;5.29;73.08;100710.25;5071128;28;20520;-70
2022/02/05 13:41:55;;;;;;;0.40;0.40;;;;;;;5.08;74.10;100695.09;5070315;28;20596;-71
2022/02/05 13:44:25;;;;;;;0.27;0.20;;;;;;;5.07;73.52;100710.53;5070513;28;20155;-71
2022/02/05 13:47:02;;;;;;;2.40;0.70;;;;;;;5.05;72.68;100684.78;5070227;28;20163;-70
2022/02/05 13:49:28;;;;;;;1.00;1.00;;;;;;;5.03;73.37;100695.88;5070322;28;20554;-70
2022/02/05 13:51:54;;;;;;;1.00;1.00;;;;;;;5.04;73.63;100675.03;5070305;28;20216;-71
2022/02/05 13:54:19;;;;;;;0.77;0.77;;;;;;;5.01;73.88;100687.22;5070388;28;20543;-70
2022/02/05 13:56:44;;;;;;;1.33;1.23;;;;;;;5.00;73.93;100693.72;5069893;28;20224;-70
2022/02/05 13:59:21;;;;;;;0.90;0.90;;;;;;;5.02;74.36;100683.41;5072417;28;20194;-70
2022/02/05 14:01:47;;;;;;;4.20;1.10;;;;;;;5.03;74.59;100674.22;5074247;28;20174;-70
2022/02/05 14:04:14;;;;;;;4.93;1.47;;;;;;;5.00;75.02;100692.88;5074249;28;20232;-71
2022/02/05 14:06:59;;;;;;;4.23;0.90;;;;;;;4.92;75.91;100696.97;5074081;28;20170;-70
2022/02/05 14:09:30;;;;;;;3.13;1.40;;;;;;;4.89;75.41;100693.94;5074037;28;20299;-70
2022/02/05 14:11:57;;;;;;;4.37;1.37;;;;;;;4.89;75.42;100680.41;5074074;28;20602;-70
2022/02/05 14:14:27;;;;;;;1.20;0.80;;;;;;;4.89;75.49;100680.41;5074498;28;20221;-70
2022/02/05 14:16:53;;;;;;;0.87;0.60;;;;;;;4.90;75.40;100682.84;5073756;28;20195;-70
2022/02/05 14:19:27;;;;;;;0.30;0.30;;;;;;;4.93;74.59;100682.34;5073878;28;20178;-71
2022/02/05 14:21:54;;;;;;;1.47;0.80;;;;;;;4.93;74.56;100673.41;5073622;28;20178;-71
2022/02/05 14:24:25;;;;;;;0.87;0.50;;;;;;;4.91;74.30;100664.72;5073551;28;20224;-71
2022/02/05 14:27:02;;;;;;;2.43;1.70;;;;;;;4.89;74.66;100681.22;5073499;28;20161;-71
2022/02/05 14:29:36;;;;;;;0.63;0.63;;;;;;;4.89;75.04;100689.34;5073673;28;20167;-70
2022/02/05 14:32:09;;;;;;;1.03;0.50;;;;;;;4.90;75.24;100663.91;5073655;28;20207;-70
2022/02/05 14:34:58;;;;;;;4.47;1.40;;;;;;;4.90;74.86;100685.56;5073582;28;20257;-70
2022/02/05 14:42:51;;;;;;;10.70;2.67;;;;;;;4.89;76.34;100664.97;5073293;28;20235;-70
2022/02/05 14:45:16;;;;;;;1.27;0.80;;;;;;;4.90;76.41;100671.22;5073121;28;20171;-67